sensor_id;sensor_type;location;lat;lon;timestamp;P1;durP1;ratioP1;P2;durP2;ratioP2
84431;SDS011;74658;51.736;7.038;2024-02-21T00:02:25;29.50;;;9.50;;
84431;SDS011;74658;51.736;7.038;2024-02-21T00:07:25;27.10;;;9.00;;
84431;SDS011;74658;51.736;7.038;2024-02-21T00:12:26;36.00;;;10.80;;
84431;SDS011;74658;51.736;7.038;2024-02-21T00:17:27;35.80;;;10.80;;
84431;SDS011;74658;51.736;7.038;2024-02-21T00:22:27;28.90;;;10.10;;
84431;SDS011;74658;51.736;7.038;2024-02-21T00:27:28;29.10;;;10.30;;
84431;SDS011;74658;51.736;7.038;2024-02-21T00:32:28;38.40;;;10.90;;
84431;SDS011;74658;51.736;7.038;2024-02-21T00:37:30;33.20;;;11.20;;
84431;SDS011;74658;51.736;7.038;2024-02-21T00:42:30;34.50;;;10.60;;
84431;SDS011;74658;51.736;7.038;2024-02-21T00:47:30;35.30;;;11.10;;
84431;SDS011;74658;51.736;7.038;2024-02-21T00:52:31;32.50;;;10.40;;
84431;SDS011;74658;51.736;7.038;2024-02-21T00:57:31;31.90;;;10.90;;
84431;SDS011;74658;51.736;7.038;2024-02-21T01:02:32;37.00;;;11.60;;
84431;SDS011;74658;51.736;7.038;2024-02-21T01:07:33;33.70;;;11.70;;
84431;SDS011;74658;51.736;7.038;2024-02-21T01:12:33;35.70;;;10.60;;
84431;SDS011;74658;51.736;7.038;2024-02-21T01:17:34;33.50;;;11.30;;
84431;SDS011;74658;51.736;7.038;2024-02-21T01:22:34;35.60;;;11.50;;
84431;SDS011;74658;51.736;7.038;2024-02-21T01:27:35;33.50;;;10.70;;
84431;SDS011;74658;51.736;7.038;2024-02-21T01:32:35;31.10;;;10.70;;
84431;SDS011;74658;51.736;7.038;2024-02-21T01:37:36;32.00;;;10.50;;
84431;SDS011;74658;51.736;7.038;2024-02-21T01:42:37;38.80;;;12.20;;
84431;SDS011;74658;51.736;7.038;2024-02-21T01:47:37;37.40;;;12.80;;
84431;SDS011;74658;51.736;7.038;2024-02-21T01:52:38;39.40;;;12.40;;
84431;SDS011;74658;51.736;7.038;2024-02-21T01:57:39;29.50;;;11.20;;
84431;SDS011;74658;51.736;7.038;2024-02-21T02:02:39;38.40;;;12.50;;
84431;SDS011;74658;51.736;7.038;2024-02-21T02:07:40;36.20;;;11.20;;
84431;SDS011;74658;51.736;7.038;2024-02-21T02:12:40;31.40;;;11.40;;
84431;SDS011;74658;51.736;7.038;2024-02-21T02:17:42;31.70;;;11.30;;
84431;SDS011;74658;51.736;7.038;2024-02-21T02:22:41;33.30;;;11.70;;
84431;SDS011;74658;51.736;7.038;2024-02-21T02:27:42;30.40;;;10.90;;
84431;SDS011;74658;51.736;7.038;2024-02-21T02:32:44;35.00;;;11.50;;
84431;SDS011;74658;51.736;7.038;2024-02-21T02:37:48;30.70;;;10.50;;
84431;SDS011;74658;51.736;7.038;2024-02-21T02:42:44;31.40;;;9.50;;
84431;SDS011;74658;51.736;7.038;2024-02-21T02:47:45;31.30;;;10.70;;
84431;SDS011;74658;51.736;7.038;2024-02-21T02:52:45;27.20;;;10.60;;
84431;SDS011;74658;51.736;7.038;2024-02-21T02:57:46;31.10;;;10.30;;
84431;SDS011;74658;51.736;7.038;2024-02-21T03:02:48;28.70;;;10.60;;
84431;SDS011;74658;51.736;7.038;2024-02-21T03:07:47;31.60;;;10.50;;
84431;SDS011;74658;51.736;7.038;2024-02-21T03:12:48;26.90;;;10.30;;
84431;SDS011;74658;51.736;7.038;2024-02-21T03:17:48;25.30;;;10.70;;
84431;SDS011;74658;51.736;7.038;2024-02-21T03:22:49;26.50;;;9.50;;
84431;SDS011;74658;51.736;7.038;2024-02-21T03:27:50;25.70;;;9.10;;
84431;SDS011;74658;51.736;7.038;2024-02-21T03:32:50;27.50;;;10.00;;
84431;SDS011;74658;51.736;7.038;2024-02-21T03:37:51;27.40;;;9.50;;
84431;SDS011;74658;51.736;7.038;2024-02-21T03:42:51;26.00;;;10.00;;
84431;SDS011;74658;51.736;7.038;2024-02-21T03:47:52;30.70;;;10.20;;
84431;SDS011;74658;51.736;7.038;2024-02-21T03:52:52;26.00;;;9.40;;
84431;SDS011;74658;51.736;7.038;2024-02-21T03:57:53;25.00;;;9.50;;
84431;SDS011;74658;51.736;7.038;2024-02-21T04:02:54;26.70;;;9.60;;
84431;SDS011;74658;51.736;7.038;2024-02-21T04:07:54;24.20;;;9.10;;
84431;SDS011;74658;51.736;7.038;2024-02-21T04:12:55;24.40;;;8.30;;
84431;SDS011;74658;51.736;7.038;2024-02-21T04:17:55;26.80;;;9.00;;
84431;SDS011;74658;51.736;7.038;2024-02-21T04:22:56;22.90;;;8.60;;
84431;SDS011;74658;51.736;7.038;2024-02-21T04:27:57;20.50;;;8.20;;
84431;SDS011;74658;51.736;7.038;2024-02-21T04:32:57;23.70;;;8.90;;
84431;SDS011;74658;51.736;7.038;2024-02-21T04:37:58;27.40;;;9.40;;
84431;SDS011;74658;51.736;7.038;2024-02-21T04:42:58;24.90;;;8.60;;
84431;SDS011;74658;51.736;7.038;2024-02-21T04:47:59;21.80;;;8.30;;
84431;SDS011;74658;51.736;7.038;2024-02-21T04:53:00;22.00;;;7.60;;
84431;SDS011;74658;51.736;7.038;2024-02-21T04:58:00;24.50;;;8.40;;
84431;SDS011;74658;51.736;7.038;2024-02-21T05:03:01;22.70;;;8.00;;
84431;SDS011;74658;51.736;7.038;2024-02-21T05:08:01;21.70;;;8.10;;
84431;SDS011;74658;51.736;7.038;2024-02-21T05:13:02;22.70;;;8.50;;
84431;SDS011;74658;51.736;7.038;2024-02-21T05:18:03;21.30;;;8.60;;
84431;SDS011;74658;51.736;7.038;2024-02-21T05:23:03;20.70;;;7.40;;
84431;SDS011;74658;51.736;7.038;2024-02-21T05:28:04;22.60;;;7.80;;
84431;SDS011;74658;51.736;7.038;2024-02-21T05:33:04;25.60;;;8.40;;
84431;SDS011;74658;51.736;7.038;2024-02-21T05:38:05;23.50;;;7.60;;
84431;SDS011;74658;51.736;7.038;2024-02-21T05:43:06;21.60;;;7.20;;
84431;SDS011;74658;51.736;7.038;2024-02-21T05:48:07;17.30;;;6.80;;
84431;SDS011;74658;51.736;7.038;2024-02-21T05:53:07;17.10;;;6.10;;
84431;SDS011;74658;51.736;7.038;2024-02-21T05:58:07;17.60;;;6.10;;
84431;SDS011;74658;51.736;7.038;2024-02-21T06:03:08;19.20;;;6.10;;
84431;SDS011;74658;51.736;7.038;2024-02-21T06:08:08;17.50;;;6.10;;
84431;SDS011;74658;51.736;7.038;2024-02-21T06:13:09;17.90;;;6.20;;
84431;SDS011;74658;51.736;7.038;2024-02-21T06:18:10;17.50;;;6.20;;
84431;SDS011;74658;51.736;7.038;2024-02-21T06:23:10;17.30;;;6.90;;
84431;SDS011;74658;51.736;7.038;2024-02-21T06:28:11;16.10;;;5.60;;
84431;SDS011;74658;51.736;7.038;2024-02-21T06:33:11;17.50;;;6.30;;
84431;SDS011;74658;51.736;7.038;2024-02-21T06:38:12;16.70;;;6.60;;
84431;SDS011;74658;51.736;7.038;2024-02-21T06:43:12;16.90;;;6.10;;
84431;SDS011;74658;51.736;7.038;2024-02-21T06:48:13;22.90;;;8.00;;
84431;SDS011;74658;51.736;7.038;2024-02-21T06:53:14;23.30;;;7.90;;
84431;SDS011;74658;51.736;7.038;2024-02-21T06:58:14;19.50;;;7.40;;
84431;SDS011;74658;51.736;7.038;2024-02-21T07:03:15;24.40;;;8.40;;
84431;SDS011;74658;51.736;7.038;2024-02-21T07:08:15;23.90;;;8.40;;
84431;SDS011;74658;51.736;7.038;2024-02-21T07:13:16;20.10;;;7.90;;
84431;SDS011;74658;51.736;7.038;2024-02-21T07:18:17;20.50;;;7.80;;
84431;SDS011;74658;51.736;7.038;2024-02-21T07:23:18;22.50;;;8.90;;
84431;SDS011;74658;51.736;7.038;2024-02-21T07:28:18;26.80;;;8.40;;
84431;SDS011;74658;51.736;7.038;2024-02-21T07:33:18;17.40;;;7.00;;
84431;SDS011;74658;51.736;7.038;2024-02-21T07:38:19;21.70;;;7.30;;
84431;SDS011;74658;51.736;7.038;2024-02-21T07:43:20;21.50;;;7.50;;
84431;SDS011;74658;51.736;7.038;2024-02-21T07:48:20;19.20;;;7.60;;
84431;SDS011;74658;51.736;7.038;2024-02-21T07:53:21;20.60;;;8.80;;
84431;SDS011;74658;51.736;7.038;2024-02-21T07:58:21;17.60;;;7.10;;
84431;SDS011;74658;51.736;7.038;2024-02-21T08:03:22;19.80;;;7.10;;
84431;SDS011;74658;51.736;7.038;2024-02-21T08:08:22;22.50;;;7.50;;
84431;SDS011;74658;51.736;7.038;2024-02-21T08:13:23;20.10;;;7.80;;
84431;SDS011;74658;51.736;7.038;2024-02-21T08:18:25;22.10;;;8.90;;
84431;SDS011;74658;51.736;7.038;2024-02-21T08:23:24;22.00;;;7.40;;
84431;SDS011;74658;51.736;7.038;2024-02-21T08:28:25;16.80;;;7.20;;
84431;SDS011;74658;51.736;7.038;2024-02-21T08:33:26;17.60;;;6.70;;
84431;SDS011;74658;51.736;7.038;2024-02-21T08:38:26;16.90;;;7.10;;
84431;SDS011;74658;51.736;7.038;2024-02-21T08:43:27;19.20;;;7.50;;
84431;SDS011;74658;51.736;7.038;2024-02-21T08:48:27;18.50;;;7.20;;
84431;SDS011;74658;51.736;7.038;2024-02-21T08:53:28;17.70;;;7.00;;
84431;SDS011;74658;51.736;7.038;2024-02-21T08:58:29;18.80;;;6.70;;
84431;SDS011;74658;51.736;7.038;2024-02-21T09:03:30;15.20;;;6.30;;
84431;SDS011;74658;51.736;7.038;2024-02-21T09:08:30;17.80;;;5.90;;
84431;SDS011;74658;51.736;7.038;2024-02-21T09:13:30;14.80;;;5.80;;
84431;SDS011;74658;51.736;7.038;2024-02-21T09:18:31;16.50;;;5.60;;
84431;SDS011;74658;51.736;7.038;2024-02-21T09:23:32;14.00;;;5.20;;
84431;SDS011;74658;51.736;7.038;2024-02-21T09:28:32;18.50;;;7.00;;
84431;SDS011;74658;51.736;7.038;2024-02-21T09:33:33;16.00;;;6.50;;
84431;SDS011;74658;51.736;7.038;2024-02-21T09:38:33;19.90;;;6.60;;
84431;SDS011;74658;51.736;7.038;2024-02-21T09:43:34;16.10;;;7.30;;
84431;SDS011;74658;51.736;7.038;2024-02-21T09:48:39;16.90;;;7.00;;
84431;SDS011;74658;51.736;7.038;2024-02-21T09:53:36;18.50;;;6.70;;
84431;SDS011;74658;51.736;7.038;2024-02-21T09:58:36;16.60;;;7.30;;
84431;SDS011;74658;51.736;7.038;2024-02-21T10:03:36;15.80;;;5.60;;
84431;SDS011;74658;51.736;7.038;2024-02-21T10:08:37;15.00;;;6.30;;
84431;SDS011;74658;51.736;7.038;2024-02-21T10:13:38;14.70;;;5.20;;
84431;SDS011;74658;51.736;7.038;2024-02-21T10:18:38;13.50;;;5.60;;
84431;SDS011;74658;51.736;7.038;2024-02-21T10:23:42;14.30;;;5.50;;
84431;SDS011;74658;51.736;7.038;2024-02-21T10:28:39;11.00;;;4.60;;
84431;SDS011;74658;51.736;7.038;2024-02-21T10:33:40;13.20;;;5.40;;
84431;SDS011;74658;51.736;7.038;2024-02-21T10:38:41;16.00;;;6.00;;
84431;SDS011;74658;51.736;7.038;2024-02-21T10:43:41;13.40;;;5.80;;
84431;SDS011;74658;51.736;7.038;2024-02-21T10:48:42;14.20;;;5.40;;
84431;SDS011;74658;51.736;7.038;2024-02-21T10:53:44;12.60;;;4.60;;
84431;SDS011;74658;51.736;7.038;2024-02-21T10:58:43;17.30;;;5.30;;
84431;SDS011;74658;51.736;7.038;2024-02-21T11:03:44;13.80;;;5.30;;
84431;SDS011;74658;51.736;7.038;2024-02-21T11:08:45;13.90;;;5.00;;
84431;SDS011;74658;51.736;7.038;2024-02-21T11:13:45;11.20;;;4.30;;
84431;SDS011;74658;51.736;7.038;2024-02-21T11:18:45;12.10;;;4.50;;
84431;SDS011;74658;51.736;7.038;2024-02-21T11:23:54;12.00;;;4.50;;
84431;SDS011;74658;51.736;7.038;2024-02-21T11:28:55;12.40;;;4.40;;
84431;SDS011;74658;51.736;7.038;2024-02-21T11:33:47;13.20;;;4.40;;
84431;SDS011;74658;51.736;7.038;2024-02-21T11:38:48;11.20;;;4.20;;
84431;SDS011;74658;51.736;7.038;2024-02-21T11:43:49;11.80;;;4.00;;
84431;SDS011;74658;51.736;7.038;2024-02-21T11:48:49;10.00;;;3.70;;
84431;SDS011;74658;51.736;7.038;2024-02-21T11:53:50;11.30;;;3.90;;
84431;SDS011;74658;51.736;7.038;2024-02-21T11:58:50;13.70;;;3.90;;
84431;SDS011;74658;51.736;7.038;2024-02-21T12:03:51;13.20;;;4.10;;
84431;SDS011;74658;51.736;7.038;2024-02-21T12:08:52;11.20;;;4.80;;
84431;SDS011;74658;51.736;7.038;2024-02-21T12:14:00;12.90;;;4.80;;
84431;SDS011;74658;51.736;7.038;2024-02-21T12:18:53;12.50;;;4.80;;
84431;SDS011;74658;51.736;7.038;2024-02-21T12:23:53;12.40;;;4.90;;
84431;SDS011;74658;51.736;7.038;2024-02-21T12:28:54;11.80;;;4.30;;
84431;SDS011;74658;51.736;7.038;2024-02-21T12:33:55;13.00;;;4.20;;
84431;SDS011;74658;51.736;7.038;2024-02-21T12:38:55;12.50;;;4.30;;
84431;SDS011;74658;51.736;7.038;2024-02-21T12:43:56;15.10;;;5.40;;
84431;SDS011;74658;51.736;7.038;2024-02-21T12:48:56;14.90;;;4.80;;
84431;SDS011;74658;51.736;7.038;2024-02-21T12:53:57;12.10;;;5.00;;
84431;SDS011;74658;51.736;7.038;2024-02-21T12:58:58;13.40;;;4.90;;
84431;SDS011;74658;51.736;7.038;2024-02-21T13:03:58;11.30;;;4.00;;
84431;SDS011;74658;51.736;7.038;2024-02-21T13:08:59;13.10;;;5.60;;
84431;SDS011;74658;51.736;7.038;2024-02-21T13:13:59;12.40;;;4.40;;
84431;SDS011;74658;51.736;7.038;2024-02-21T13:19:00;12.60;;;5.10;;
84431;SDS011;74658;51.736;7.038;2024-02-21T13:24:01;13.30;;;4.10;;
84431;SDS011;74658;51.736;7.038;2024-02-21T13:29:01;11.10;;;4.10;;
84431;SDS011;74658;51.736;7.038;2024-02-21T13:34:02;9.60;;;3.60;;
84431;SDS011;74658;51.736;7.038;2024-02-21T13:39:02;12.20;;;3.90;;
84431;SDS011;74658;51.736;7.038;2024-02-21T13:44:03;11.60;;;3.50;;
84431;SDS011;74658;51.736;7.038;2024-02-21T13:49:04;10.10;;;2.90;;
84431;SDS011;74658;51.736;7.038;2024-02-21T13:54:04;10.60;;;4.20;;
84431;SDS011;74658;51.736;7.038;2024-02-21T13:59:05;12.50;;;3.80;;
84431;SDS011;74658;51.736;7.038;2024-02-21T14:04:05;11.20;;;3.90;;
84431;SDS011;74658;51.736;7.038;2024-02-21T14:09:07;14.00;;;4.00;;
84431;SDS011;74658;51.736;7.038;2024-02-21T14:14:07;10.20;;;3.30;;
84431;SDS011;74658;51.736;7.038;2024-02-21T14:19:07;12.20;;;3.60;;
84431;SDS011;74658;51.736;7.038;2024-02-21T14:24:08;11.10;;;3.50;;
84431;SDS011;74658;51.736;7.038;2024-02-21T14:29:08;10.00;;;4.00;;
84431;SDS011;74658;51.736;7.038;2024-02-21T14:34:09;11.60;;;3.60;;
84431;SDS011;74658;51.736;7.038;2024-02-21T14:39:10;11.00;;;3.60;;
84431;SDS011;74658;51.736;7.038;2024-02-21T14:44:10;8.60;;;3.50;;
84431;SDS011;74658;51.736;7.038;2024-02-21T14:49:11;9.50;;;3.30;;
84431;SDS011;74658;51.736;7.038;2024-02-21T14:54:11;12.40;;;3.90;;
84431;SDS011;74658;51.736;7.038;2024-02-21T14:59:12;11.30;;;3.80;;
84431;SDS011;74658;51.736;7.038;2024-02-21T15:04:13;11.70;;;3.70;;
84431;SDS011;74658;51.736;7.038;2024-02-21T15:09:13;9.00;;;3.30;;
84431;SDS011;74658;51.736;7.038;2024-02-21T15:14:14;11.40;;;3.60;;
84431;SDS011;74658;51.736;7.038;2024-02-21T15:19:15;9.80;;;3.30;;
84431;SDS011;74658;51.736;7.038;2024-02-21T15:24:17;10.50;;;3.70;;
84431;SDS011;74658;51.736;7.038;2024-02-21T15:29:16;10.90;;;3.40;;
84431;SDS011;74658;51.736;7.038;2024-02-21T15:34:16;11.00;;;3.40;;
84431;SDS011;74658;51.736;7.038;2024-02-21T15:39:17;11.50;;;3.80;;
84431;SDS011;74658;51.736;7.038;2024-02-21T15:44:18;13.70;;;4.00;;
84431;SDS011;74658;51.736;7.038;2024-02-21T15:49:18;13.50;;;6.00;;
84431;SDS011;74658;51.736;7.038;2024-02-21T15:54:19;13.20;;;4.70;;
84431;SDS011;74658;51.736;7.038;2024-02-21T15:59:20;12.90;;;5.30;;
84431;SDS011;74658;51.736;7.038;2024-02-21T16:04:20;14.10;;;5.30;;
84431;SDS011;74658;51.736;7.038;2024-02-21T16:09:21;13.10;;;5.00;;
84431;SDS011;74658;51.736;7.038;2024-02-21T16:14:21;20.50;;;8.10;;
84431;SDS011;74658;51.736;7.038;2024-02-21T16:19:22;12.20;;;5.20;;
84431;SDS011;74658;51.736;7.038;2024-02-21T16:24:23;12.20;;;4.50;;
84431;SDS011;74658;51.736;7.038;2024-02-21T16:29:23;12.50;;;4.00;;
84431;SDS011;74658;51.736;7.038;2024-02-21T16:34:24;14.90;;;5.60;;
84431;SDS011;74658;51.736;7.038;2024-02-21T16:39:25;11.20;;;5.00;;
84431;SDS011;74658;51.736;7.038;2024-02-21T16:44:25;17.80;;;6.20;;
84431;SDS011;74658;51.736;7.038;2024-02-21T16:49:26;14.10;;;4.70;;
84431;SDS011;74658;51.736;7.038;2024-02-21T16:54:26;14.40;;;5.40;;
84431;SDS011;74658;51.736;7.038;2024-02-21T16:59:27;12.50;;;5.20;;
84431;SDS011;74658;51.736;7.038;2024-02-21T17:04:28;14.90;;;6.50;;
84431;SDS011;74658;51.736;7.038;2024-02-21T17:09:28;12.60;;;5.30;;
84431;SDS011;74658;51.736;7.038;2024-02-21T17:14:29;14.60;;;5.40;;
84431;SDS011;74658;51.736;7.038;2024-02-21T17:19:29;12.80;;;5.20;;
84431;SDS011;74658;51.736;7.038;2024-02-21T17:24:30;15.30;;;6.80;;
84431;SDS011;74658;51.736;7.038;2024-02-21T17:29:30;13.30;;;5.30;;
84431;SDS011;74658;51.736;7.038;2024-02-21T17:34:31;13.20;;;5.20;;
84431;SDS011;74658;51.736;7.038;2024-02-21T17:39:33;14.20;;;5.80;;
84431;SDS011;74658;51.736;7.038;2024-02-21T17:44:32;14.40;;;5.40;;
84431;SDS011;74658;51.736;7.038;2024-02-21T17:49:33;13.80;;;5.10;;
84431;SDS011;74658;51.736;7.038;2024-02-21T17:54:33;13.40;;;5.00;;
84431;SDS011;74658;51.736;7.038;2024-02-21T17:59:34;13.10;;;4.90;;
84431;SDS011;74658;51.736;7.038;2024-02-21T18:04:35;14.00;;;4.50;;
84431;SDS011;74658;51.736;7.038;2024-02-21T18:09:35;11.50;;;4.50;;
84431;SDS011;74658;51.736;7.038;2024-02-21T18:14:36;12.50;;;5.40;;
84431;SDS011;74658;51.736;7.038;2024-02-21T18:19:37;12.60;;;4.70;;
84431;SDS011;74658;51.736;7.038;2024-02-21T18:24:37;11.80;;;5.00;;
84431;SDS011;74658;51.736;7.038;2024-02-21T18:29:38;12.90;;;4.90;;
84431;SDS011;74658;51.736;7.038;2024-02-21T18:34:38;13.40;;;5.60;;
84431;SDS011;74658;51.736;7.038;2024-02-21T18:39:39;11.90;;;4.90;;
84431;SDS011;74658;51.736;7.038;2024-02-21T18:44:40;12.60;;;4.40;;
84431;SDS011;74658;51.736;7.038;2024-02-21T18:49:40;12.40;;;5.50;;
84431;SDS011;74658;51.736;7.038;2024-02-21T18:54:41;11.80;;;5.00;;
84431;SDS011;74658;51.736;7.038;2024-02-21T18:59:42;12.90;;;5.10;;
84431;SDS011;74658;51.736;7.038;2024-02-21T19:04:42;15.10;;;5.80;;
84431;SDS011;74658;51.736;7.038;2024-02-21T19:09:43;16.00;;;5.30;;
84431;SDS011;74658;51.736;7.038;2024-02-21T19:14:43;18.10;;;5.90;;
84431;SDS011;74658;51.736;7.038;2024-02-21T19:19:44;14.30;;;6.40;;
84431;SDS011;74658;51.736;7.038;2024-02-21T19:24:45;13.60;;;5.60;;
84431;SDS011;74658;51.736;7.038;2024-02-21T19:29:46;12.30;;;5.30;;
84431;SDS011;74658;51.736;7.038;2024-02-21T19:34:46;14.50;;;5.80;;
84431;SDS011;74658;51.736;7.038;2024-02-21T19:39:57;13.80;;;5.50;;
84431;SDS011;74658;51.736;7.038;2024-02-21T19:44:47;16.80;;;6.10;;
84431;SDS011;74658;51.736;7.038;2024-02-21T19:49:48;15.20;;;5.70;;
84431;SDS011;74658;51.736;7.038;2024-02-21T19:54:48;12.90;;;4.60;;
84431;SDS011;74658;51.736;7.038;2024-02-21T19:59:49;15.40;;;6.00;;
84431;SDS011;74658;51.736;7.038;2024-02-21T20:04:50;12.10;;;5.40;;
84431;SDS011;74658;51.736;7.038;2024-02-21T20:09:50;14.60;;;5.30;;
84431;SDS011;74658;51.736;7.038;2024-02-21T20:14:51;17.20;;;6.20;;
84431;SDS011;74658;51.736;7.038;2024-02-21T20:19:52;15.00;;;5.40;;
84431;SDS011;74658;51.736;7.038;2024-02-21T20:24:53;12.80;;;5.80;;
84431;SDS011;74658;51.736;7.038;2024-02-21T20:29:53;14.10;;;5.40;;
84431;SDS011;74658;51.736;7.038;2024-02-21T20:34:53;14.40;;;5.60;;
84431;SDS011;74658;51.736;7.038;2024-02-21T20:39:54;13.80;;;5.60;;
84431;SDS011;74658;51.736;7.038;2024-02-21T20:44:55;15.00;;;5.90;;
84431;SDS011;74658;51.736;7.038;2024-02-21T20:49:55;12.60;;;5.30;;
84431;SDS011;74658;51.736;7.038;2024-02-21T20:54:56;14.20;;;6.30;;
84431;SDS011;74658;51.736;7.038;2024-02-21T20:59:57;14.40;;;6.30;;
84431;SDS011;74658;51.736;7.038;2024-02-21T21:04:57;16.10;;;6.80;;
84431;SDS011;74658;51.736;7.038;2024-02-21T21:09:58;15.70;;;6.80;;
84431;SDS011;74658;51.736;7.038;2024-02-21T21:14:58;13.20;;;6.00;;
84431;SDS011;74658;51.736;7.038;2024-02-21T21:19:59;15.50;;;6.90;;
84431;SDS011;74658;51.736;7.038;2024-02-21T21:24:59;13.30;;;6.40;;
84431;SDS011;74658;51.736;7.038;2024-02-21T21:30:00;17.10;;;7.50;;
84431;SDS011;74658;51.736;7.038;2024-02-21T21:35:01;17.10;;;8.30;;
84431;SDS011;74658;51.736;7.038;2024-02-21T21:40:01;15.00;;;7.30;;
84431;SDS011;74658;51.736;7.038;2024-02-21T21:45:02;16.80;;;7.50;;
84431;SDS011;74658;51.736;7.038;2024-02-21T21:50:03;15.90;;;7.00;;
84431;SDS011;74658;51.736;7.038;2024-02-21T21:55:03;14.10;;;7.00;;
84431;SDS011;74658;51.736;7.038;2024-02-21T21:55:03;14.10;;;7.00;;
84431;SDS011;74658;51.736;7.038;2024-02-21T22:00:04;17.40;;;7.40;;
84431;SDS011;74658;51.736;7.038;2024-02-21T22:05:05;15.50;;;7.20;;
84431;SDS011;74658;51.736;7.038;2024-02-21T22:10:06;16.60;;;6.60;;
84431;SDS011;74658;51.736;7.038;2024-02-21T22:15:06;12.60;;;6.50;;
84431;SDS011;74658;51.736;7.038;2024-02-21T22:20:07;15.80;;;7.10;;
84431;SDS011;74658;51.736;7.038;2024-02-21T22:25:07;14.90;;;6.60;;
84431;SDS011;74658;51.736;7.038;2024-02-21T22:30:08;13.80;;;6.80;;
84431;SDS011;74658;51.736;7.038;2024-02-21T22:35:08;13.90;;;6.70;;
84431;SDS011;74658;51.736;7.038;2024-02-21T22:40:09;13.30;;;6.10;;
84431;SDS011;74658;51.736;7.038;2024-02-21T22:45:09;12.00;;;6.20;;
84431;SDS011;74658;51.736;7.038;2024-02-21T22:50:11;15.30;;;7.00;;
84431;SDS011;74658;51.736;7.038;2024-02-21T22:55:10;11.90;;;6.30;;
84431;SDS011;74658;51.736;7.038;2024-02-21T23:00:11;14.50;;;6.50;;
84431;SDS011;74658;51.736;7.038;2024-02-21T23:05:12;13.30;;;6.80;;
84431;SDS011;74658;51.736;7.038;2024-02-21T23:10:12;12.40;;;6.10;;
84431;SDS011;74658;51.736;7.038;2024-02-21T23:15:13;13.20;;;6.90;;
84431;SDS011;74658;51.736;7.038;2024-02-21T23:20:13;14.40;;;6.60;;
84431;SDS011;74658;51.736;7.038;2024-02-21T23:25:14;12.70;;;6.60;;
84431;SDS011;74658;51.736;7.038;2024-02-21T23:30:15;12.00;;;6.20;;
84431;SDS011;74658;51.736;7.038;2024-02-21T23:35:15;11.10;;;6.10;;
84431;SDS011;74658;51.736;7.038;2024-02-21T23:40:16;13.60;;;6.80;;
84431;SDS011;74658;51.736;7.038;2024-02-21T23:45:16;13.40;;;7.50;;
84431;SDS011;74658;51.736;7.038;2024-02-21T23:50:17;13.60;;;7.60;;
84431;SDS011;74658;51.736;7.038;2024-02-21T23:55:18;15.20;;;8.30;;
